createdAt,value
2022-10-15T00:00:04.398Z,100188.63
2022-10-15T00:01:13.632Z,100188.53
2022-10-15T00:02:18.135Z,100188.72
2022-10-15T00:03:19.953Z,100184.38
2022-10-15T00:04:24.404Z,100182.44
2022-10-15T00:05:26.258Z,100190.34
2022-10-15T00:06:30.695Z,100194.81
2022-10-15T00:07:32.549Z,100183.38
2022-10-15T00:08:37.176Z,100183.50
2022-10-15T00:09:39.051Z,100186.25
2022-10-15T00:10:43.535Z,100189.94
2022-10-15T00:11:48.009Z,100187.38
2022-10-15T00:12:49.998Z,100183.00
2022-10-15T00:13:57.755Z,100180.44
2022-10-15T00:14:59.615Z,100178.63
2022-10-15T00:16:04.114Z,100169.88
2022-10-15T00:17:05.929Z,100177.13
2022-10-15T00:18:10.398Z,100167.50
2022-10-15T00:19:12.802Z,100168.44
2022-10-15T00:20:17.238Z,100178.22
2022-10-15T00:21:20.253Z,100173.09
2022-10-15T00:22:24.992Z,100171.38
2022-10-15T00:23:27.158Z,100164.34
2022-10-15T00:24:31.611Z,100167.75
2022-10-15T00:25:33.544Z,100162.63
2022-10-15T00:26:38.189Z,100162.44
2022-10-15T00:27:40.161Z,100166.81
2022-10-15T00:28:44.839Z,100163.13
2022-10-15T00:29:46.666Z,100162.28
2022-10-15T00:30:51.169Z,100155.16
2022-10-15T00:31:53.077Z,100157.81
2022-10-15T00:32:57.483Z,100161.31
2022-10-15T00:34:00.183Z,100165.69
2022-10-15T00:35:04.706Z,100157.81
2022-10-15T00:36:07.897Z,100158.66
2022-10-15T00:37:12.407Z,100150.59
2022-10-15T00:38:14.242Z,100151.63
2022-10-15T00:39:18.748Z,100148.97
2022-10-15T00:40:21.513Z,100148.78
2022-10-15T00:41:31.073Z,100149.72
2022-10-15T00:42:32.944Z,100151.63
2022-10-15T00:43:38.604Z,100155.06
2022-10-15T00:44:47.547Z,100149.72
2022-10-15T00:45:51.943Z,100142.69
2022-10-15T00:46:55.018Z,100148.03
2022-10-15T00:47:59.553Z,100145.34
2022-10-15T00:49:08.107Z,100140.03
2022-10-15T00:50:15.127Z,100138.22
2022-10-15T00:51:17.865Z,100139.09
2022-10-15T00:52:23.803Z,100137.38
2022-10-15T00:53:25.806Z,100139.09
2022-10-15T00:54:30.578Z,100143.63
2022-10-15T00:55:32.398Z,100145.53
2022-10-15T00:56:36.837Z,100145.53
2022-10-15T00:57:38.685Z,100142.00
2022-10-15T00:58:43.360Z,100137.56
2022-10-15T00:59:48.064Z,100149.13
2022-10-15T01:00:52.817Z,100150.84
2022-10-15T01:01:54.878Z,100142.88
2022-10-15T01:02:59.306Z,100146.47
2022-10-15T01:04:01.130Z,100143.81
2022-10-15T01:05:05.741Z,100150.94
2022-10-15T01:06:07.602Z,100143.91
2022-10-15T01:07:12.027Z,100147.50
2022-10-15T01:08:13.949Z,100148.38
2022-10-15T01:09:18.393Z,100156.44
2022-10-15T01:10:20.886Z,100153.91
2022-10-15T01:11:46.881Z,100144.28
2022-10-15T01:12:54.466Z,100147.03
2022-10-15T01:14:08.175Z,100142.66
2022-10-15T01:15:13.930Z,100140.00
2022-10-15T01:16:24.016Z,100134.69
2022-10-15T01:17:27.909Z,100136.56
2022-10-15T01:18:36.146Z,100140.84
2022-10-15T01:19:45.471Z,100145.31
2022-10-15T01:20:52.270Z,100150.47
2022-10-15T01:22:13.466Z,100139.81
2022-10-15T01:23:15.341Z,100145.16
2022-10-15T01:24:36.609Z,100143.34
2022-10-15T01:25:41.298Z,100149.59
2022-10-15T01:26:54.765Z,100147.03
2022-10-15T01:28:05.318Z,100144.47
2022-10-15T01:29:07.123Z,100139.22
2022-10-15T01:30:31.221Z,100144.63
2022-10-15T01:31:42.056Z,100143.97
2022-10-15T01:32:46.583Z,100135.25
2022-10-15T01:34:04.997Z,100138.84
2022-10-15T01:35:23.515Z,100138.84
2022-10-15T01:36:31.364Z,100137.13
2022-10-15T01:37:33.148Z,100139.00
2022-10-15T01:38:46.561Z,100146.22
2022-10-15T01:40:04.397Z,100139.19
2022-10-15T01:41:13.636Z,100141.06
2022-10-15T01:42:19.535Z,100141.19
2022-10-15T01:43:25.646Z,100143.00
2022-10-15T01:45:15.170Z,100143.94
2022-10-15T01:46:43.437Z,100133.38
2022-10-15T01:47:57.635Z,100131.75
2022-10-15T01:48:59.540Z,100137.06
2022-10-15T01:50:04.045Z,100124.81
2022-10-15T01:51:07.070Z,100134.59
2022-10-15T01:52:12.390Z,100129.47
2022-10-15T01:53:18.447Z,100132.13
2022-10-15T01:54:22.870Z,100126.03
2022-10-15T01:55:26.664Z,100134.03
2022-10-15T01:56:31.441Z,100128.78
2022-10-15T01:57:33.614Z,100129.81
2022-10-15T01:58:40.840Z,100128.09
2022-10-15T01:59:43.199Z,100122.78
2022-10-15T02:00:47.677Z,100125.34
2022-10-15T02:01:49.542Z,100128.78
2022-10-15T02:02:54.030Z,100124.31
2022-10-15T02:03:55.858Z,100113.69
2022-10-15T02:05:00.274Z,100117.13
2022-10-15T02:06:06.848Z,100108.19
2022-10-15T02:07:30.303Z,100109.16
2022-10-15T02:08:39.333Z,100103.81
2022-10-15T02:10:04.018Z,100108.28
2022-10-15T02:11:17.852Z,100109.16
2022-10-15T02:12:22.611Z,100103.72
2022-10-15T02:13:43.779Z,100100.09
2022-10-15T02:15:01.807Z,100097.56
2022-10-15T02:16:13.241Z,100094.91
2022-10-15T02:17:17.954Z,100087.09
2022-10-15T02:18:23.098Z,100092.25
2022-10-15T02:19:48.323Z,100095.84
2022-10-15T02:21:03.938Z,100088.81
2022-10-15T02:22:14.085Z,100092.34
2022-10-15T02:23:17.962Z,100088.72
2022-10-15T02:24:23.302Z,100086.16
2022-10-15T02:25:25.124Z,100086.94
2022-10-15T02:26:30.829Z,100080.84
2022-10-15T02:27:33.377Z,100083.50
2022-10-15T02:28:37.836Z,100087.00
2022-10-15T02:29:39.697Z,100079.91
2022-10-15T02:30:44.871Z,100085.22
2022-10-15T02:31:47.687Z,100085.22
2022-10-15T02:32:54.036Z,100078.19
2022-10-15T02:33:57.275Z,100081.78
2022-10-15T02:35:01.775Z,100075.59
2022-10-15T02:36:06.350Z,100083.66
2022-10-15T02:37:09.174Z,100079.13
2022-10-15T02:39:38.395Z,100087.09
2022-10-15T02:40:40.303Z,100087.09
2022-10-15T02:41:44.742Z,100082.56
2022-10-15T02:42:49.666Z,100083.50
2022-10-15T02:43:54.265Z,100080.94
2022-10-15T02:44:56.664Z,100086.16
2022-10-15T02:46:01.149Z,100088.81
2022-10-15T02:47:02.995Z,100089.66
2022-10-15T02:48:07.926Z,100075.88
2022-10-15T02:49:10.274Z,100079.03
2022-10-15T02:50:14.803Z,100079.91
2022-10-15T02:51:16.635Z,100080.53
2022-10-15T02:52:21.335Z,100077.81
2022-10-15T02:53:25.954Z,100073.25
2022-10-15T02:54:27.817Z,100076.69
2022-10-15T02:55:32.371Z,100079.25
2022-10-15T02:56:34.679Z,100084.47
2022-10-15T02:57:39.455Z,100081.06
2022-10-15T02:58:42.585Z,100084.47
2022-10-15T02:59:47.073Z,100083.63
2022-10-15T03:00:49.311Z,100077.44
2022-10-15T03:01:53.814Z,100074.78
2022-10-15T03:02:56.469Z,100073.84
2022-10-15T03:04:01.380Z,100081.69
2022-10-15T03:06:36.654Z,100069.94
2022-10-15T03:07:38.536Z,100068.91
2022-10-15T03:08:43.073Z,100076.72
2022-10-15T03:09:45.203Z,100070.31
2022-10-15T03:10:51.047Z,100078.22
2022-10-15T03:11:53.047Z,100078.03
2022-10-15T03:12:58.575Z,100081.47
2022-10-15T03:14:00.439Z,100079.56
2022-10-15T03:15:05.471Z,100075.97
2022-10-15T03:16:08.075Z,100068.75
2022-10-15T03:17:13.561Z,100064.25
2022-10-15T03:18:15.649Z,100067.59
2022-10-15T03:19:20.702Z,100063.03
2022-10-15T03:20:23.055Z,100068.19
2022-10-15T03:21:30.909Z,100064.59
2022-10-15T03:22:38.855Z,100063.50
2022-10-15T03:23:43.278Z,100064.19
2022-10-15T03:24:51.631Z,100058.69
2022-10-15T03:26:01.242Z,100058.50
2022-10-15T03:27:03.637Z,100058.28
2022-10-15T03:28:08.160Z,100065.13
2022-10-15T03:29:16.457Z,100050.88
2022-10-15T03:30:24.810Z,100056.66
2022-10-15T03:31:29.602Z,100051.25
2022-10-15T03:32:36.203Z,100047.44
2022-10-15T03:33:41.910Z,100044.59
2022-10-15T03:34:43.767Z,100047.81
2022-10-15T03:35:52.036Z,100049.34
2022-10-15T03:36:56.465Z,100046.41
2022-10-15T03:37:58.617Z,100043.41
2022-10-15T03:39:03.263Z,100049.41
2022-10-15T03:40:07.398Z,100048.38
2022-10-15T03:41:15.009Z,100041.13
2022-10-15T03:42:17.891Z,100044.53
2022-10-15T03:43:22.781Z,100031.03
2022-10-15T03:44:24.582Z,100047.75
2022-10-15T03:45:40.225Z,100033.50
2022-10-15T03:46:54.577Z,100033.31
2022-10-15T03:47:59.367Z,100034.78
2022-10-15T03:49:07.578Z,100028.50
2022-10-15T03:50:10.870Z,100029.28
2022-10-15T03:51:18.170Z,100033.66
2022-10-15T03:52:27.416Z,100029.09
2022-10-15T03:53:32.621Z,100030.03
2022-10-15T03:54:34.735Z,100027.38
2022-10-15T03:55:40.137Z,100019.91
2022-10-15T03:56:42.975Z,100023.34
2022-10-15T03:58:05.356Z,100022.38
2022-10-15T03:59:07.639Z,100016.94
2022-10-15T04:00:12.289Z,100031.03
2022-10-15T04:01:15.002Z,100026.38
2022-10-15T04:02:19.992Z,100030.63
2022-10-15T04:03:24.335Z,100028.72
2022-10-15T04:04:28.849Z,100029.56
2022-10-15T04:05:30.751Z,100029.38
2022-10-15T04:06:41.449Z,100028.31
2022-10-15T04:07:47.689Z,100031.75
2022-10-15T04:08:56.892Z,100038.66
2022-10-15T04:10:00.522Z,100039.41
2022-10-15T04:11:12.051Z,100026.66
2022-10-15T04:12:14.111Z,100036.25
2022-10-15T04:13:18.584Z,100035.06
2022-10-15T04:14:20.555Z,100038.53
2022-10-15T04:15:24.998Z,100033.09
2022-10-15T04:16:30.798Z,100031.19
2022-10-15T04:17:35.295Z,100030.22
2022-10-15T04:18:37.375Z,100033.75
2022-10-15T04:19:42.409Z,100031.00
2022-10-15T04:20:44.279Z,100033.53
2022-10-15T04:21:51.330Z,100032.66
2022-10-15T04:23:05.022Z,100038.66
2022-10-15T04:24:09.679Z,100039.50
2022-10-15T04:25:15.136Z,100036.75
2022-10-15T04:26:20.161Z,100037.59
2022-10-15T04:27:22.136Z,100039.31
2022-10-15T04:28:27.114Z,100040.81
2022-10-15T04:29:29.071Z,100040.69
2022-10-15T04:30:43.289Z,100042.31
2022-10-15T04:31:47.786Z,100041.34
2022-10-15T04:32:54.424Z,100040.41
2022-10-15T04:33:56.272Z,100033.16
2022-10-15T04:35:00.857Z,100042.75
2022-10-15T04:36:21.676Z,100047.00
2022-10-15T04:37:37.358Z,100045.94
2022-10-15T04:38:41.911Z,100041.38
2022-10-15T04:39:43.735Z,100036.78
2022-10-15T04:40:50.993Z,100035.72
2022-10-15T04:41:52.811Z,100041.78
2022-10-15T04:43:04.166Z,100037.19
2022-10-15T04:44:06.077Z,100037.09
2022-10-15T04:45:11.268Z,100028.13
2022-10-15T04:46:13.808Z,100035.09
2022-10-15T04:47:18.305Z,100031.47
2022-10-15T04:48:26.011Z,100032.31
2022-10-15T04:49:30.437Z,100037.53
2022-10-15T04:50:32.386Z,100030.41
2022-10-15T04:51:56.368Z,100034.63
2022-10-15T04:53:03.823Z,100039.97
2022-10-15T04:54:11.955Z,100038.16
2022-10-15T04:55:31.350Z,100048.84
2022-10-15T04:56:35.421Z,100045.31
2022-10-15T04:57:40.052Z,100050.66
2022-10-15T04:58:42.841Z,100056.00
2022-10-15T04:59:47.351Z,100054.28
2022-10-15T05:01:06.505Z,100052.38
2022-10-15T05:02:19.369Z,100051.63
2022-10-15T05:03:28.693Z,100050.66
2022-10-15T05:04:37.930Z,100049.69
2022-10-15T05:05:42.571Z,100047.88
2022-10-15T05:06:47.332Z,100053.13
2022-10-15T05:07:53.151Z,100056.53
2022-10-15T05:08:57.636Z,100049.38
2022-10-15T05:10:03.062Z,100060.94
2022-10-15T05:11:08.384Z,100067.97
2022-10-15T05:12:10.336Z,100059.00
2022-10-15T05:13:14.756Z,100060.72
2022-10-15T05:14:19.742Z,100062.44
2022-10-15T05:15:37.458Z,100060.47
2022-10-15T05:16:44.680Z,100054.19
2022-10-15T05:17:47.377Z,100060.38
2022-10-15T05:18:53.396Z,100062.44
2022-10-15T05:19:55.220Z,100064.09
2022-10-15T05:21:04.622Z,100069.44
2022-10-15T05:22:07.646Z,100072.25
2022-10-15T05:23:17.730Z,100064.09
2022-10-15T05:24:30.569Z,100073.09
2022-10-15T05:25:37.473Z,100076.72
2022-10-15T05:26:41.973Z,100077.59
2022-10-15T05:27:44.565Z,100081.13
2022-10-15T05:28:49.345Z,100076.72
2022-10-15T05:29:59.499Z,100083.78
2022-10-15T05:31:17.700Z,100081.13
2022-10-15T05:33:27.645Z,100087.94
2022-10-15T05:34:32.162Z,100085.06
2022-10-15T05:35:40.559Z,100084.63
2022-10-15T05:36:44.989Z,100081.63
2022-10-15T05:37:46.847Z,100079.41
2022-10-15T05:38:56.062Z,100067.97
2022-10-15T05:39:57.928Z,100077.53
2022-10-15T05:41:02.995Z,100078.84
2022-10-15T05:42:07.635Z,100071.34
2022-10-15T05:43:24.015Z,100072.63
2022-10-15T05:44:28.474Z,100082.97
2022-10-15T05:45:30.342Z,100091.41
2022-10-15T05:46:40.562Z,100080.50
2022-10-15T05:47:42.409Z,100088.28
2022-10-15T05:48:53.169Z,100077.38
2022-10-15T05:49:55.138Z,100083.34
2022-10-15T05:51:09.268Z,100087.63
2022-10-15T05:52:11.139Z,100086.69
2022-10-15T05:53:35.522Z,100091.78
2022-10-15T05:54:42.116Z,100086.13
2022-10-15T05:55:46.506Z,100093.94
2022-10-15T05:56:48.398Z,100098.94
2022-10-15T05:57:52.965Z,100096.03
2022-10-15T05:58:54.792Z,100097.44
2022-10-15T05:59:59.850Z,100102.41
2022-10-15T06:01:02.434Z,100111.81
2022-10-15T06:02:08.351Z,100105.16
2022-10-15T06:03:12.163Z,100112.00
2022-10-15T06:04:17.188Z,100109.00
2022-10-15T06:05:19.075Z,100111.31
2022-10-15T06:06:24.356Z,100112.78
2022-10-15T06:07:26.860Z,100116.97
2022-10-15T06:08:31.946Z,100119.38
2022-10-15T06:09:36.450Z,100114.66
2022-10-15T06:10:38.398Z,100122.59
2022-10-15T06:11:42.935Z,100116.16
2022-10-15T06:12:51.709Z,100117.00
2022-10-15T06:13:56.137Z,100120.41
2022-10-15T06:14:58.035Z,100124.88
2022-10-15T06:16:02.637Z,100129.28
2022-10-15T06:17:04.429Z,100141.81
2022-10-15T06:18:08.867Z,100139.28
2022-10-15T06:19:10.717Z,100143.78
2022-10-15T06:20:15.715Z,100145.59
2022-10-15T06:21:17.500Z,100147.63
2022-10-15T06:22:21.949Z,100152.25
2022-10-15T06:23:24.469Z,100158.78
2022-10-15T06:24:28.925Z,100156.47
2022-10-15T06:25:31.228Z,100165.03
2022-10-15T06:26:35.612Z,100171.69
2022-10-15T06:27:37.453Z,100169.59
2022-10-15T06:28:42.430Z,100170.03
2022-10-15T06:29:44.316Z,100167.06
2022-10-15T06:30:48.734Z,100169.19
2022-10-15T06:31:50.591Z,100170.50
2022-10-15T06:32:55.816Z,100176.94
2022-10-15T06:33:57.624Z,100170.94
2022-10-15T06:35:02.025Z,100169.19
2022-10-15T06:36:07.667Z,100177.22
2022-10-15T06:37:12.127Z,100170.09
2022-10-15T06:38:13.942Z,100167.19
2022-10-15T06:39:18.582Z,100176.72
2022-10-15T06:40:20.516Z,100171.97
2022-10-15T06:41:25.911Z,100171.66
2022-10-15T06:42:27.748Z,100179.22
2022-10-15T06:43:35.234Z,100168.31
2022-10-15T06:44:38.124Z,100164.25
2022-10-15T06:45:43.525Z,100159.41
2022-10-15T06:46:51.791Z,100158.84
2022-10-15T06:47:56.293Z,100154.09
2022-10-15T06:48:58.137Z,100165.13
2022-10-15T06:50:02.775Z,100161.97
2022-10-15T06:51:05.070Z,100157.16
2022-10-15T06:52:09.815Z,100156.69
2022-10-15T06:53:11.689Z,100157.31
2022-10-15T06:54:16.393Z,100159.63
2022-10-15T06:55:18.246Z,100158.22
2022-10-15T06:56:22.731Z,100164.81
2022-10-15T06:57:26.163Z,100164.34
2022-10-15T06:58:30.865Z,100162.03
2022-10-15T06:59:33.291Z,100167.06
2022-10-15T07:00:39.379Z,100161.22
2022-10-15T07:01:43.823Z,100166.13
2022-10-15T07:02:45.887Z,100169.28
2022-10-15T07:03:53.649Z,100167.13
2022-10-15T07:04:55.459Z,100170.34
2022-10-15T07:06:04.518Z,100170.72
2022-10-15T07:07:06.442Z,100163.63
2022-10-15T07:08:13.159Z,100167.19
2022-10-15T07:09:17.245Z,100171.97
2022-10-15T07:10:21.650Z,100169.75
2022-10-15T07:11:23.542Z,100172.84
2022-10-15T07:12:27.945Z,100160.41
2022-10-15T07:13:30.041Z,100163.66
2022-10-15T07:14:40.073Z,100170.28
2022-10-15T07:15:46.413Z,100174.03
2022-10-15T07:16:50.841Z,100177.97
2022-10-15T07:17:53.486Z,100183.78
2022-10-15T07:18:58.012Z,100190.38
2022-10-15T07:19:59.856Z,100183.78
2022-10-15T07:21:05.743Z,100187.69
2022-10-15T07:22:08.160Z,100192.78
2022-10-15T07:23:12.573Z,100201.31
2022-10-15T07:24:14.430Z,100197.44
2022-10-15T07:25:18.833Z,100195.44
2022-10-15T07:26:21.403Z,100196.78
2022-10-15T07:27:25.804Z,100196.41
2022-10-15T07:28:29.030Z,100202.28
2022-10-15T07:29:34.762Z,100209.97
2022-10-15T07:30:36.730Z,100205.91
2022-10-15T07:31:41.251Z,100210.66
2022-10-15T07:32:45.601Z,100203.69
2022-10-15T07:33:50.997Z,100210.50
2022-10-15T07:34:53.441Z,100218.16
2022-10-15T07:35:57.885Z,100208.75
2022-10-15T07:36:59.688Z,100219.94
2022-10-15T07:38:04.821Z,100215.78
2022-10-15T07:39:06.669Z,100216.84
2022-10-15T07:40:12.049Z,100210.56
2022-10-15T07:41:14.199Z,100220.25
2022-10-15T07:42:20.570Z,100225.00
2022-10-15T07:43:22.446Z,100226.44
2022-10-15T07:44:26.894Z,100232.16
2022-10-15T07:45:28.855Z,100237.97
2022-10-15T07:46:33.249Z,100220.25
2022-10-15T07:47:35.067Z,100239.91
2022-10-15T07:48:40.900Z,100239.63
2022-10-15T07:49:42.641Z,100243.03
2022-10-15T07:50:47.231Z,100249.41
2022-10-15T07:51:49.037Z,100237.34
2022-10-15T07:52:53.461Z,100234.53
2022-10-15T07:53:55.674Z,100242.78
2022-10-15T07:55:00.178Z,100260.34
2022-10-15T07:56:03.021Z,100255.56
2022-10-15T07:57:10.964Z,100252.75
2022-10-15T07:58:13.146Z,100258.13
2022-10-15T07:59:17.546Z,100252.63
2022-10-15T08:00:19.448Z,100256.88
2022-10-15T08:01:24.186Z,100250.53
2022-10-15T08:02:26.390Z,100255.78
2022-10-15T08:03:31.198Z,100253.91
2022-10-15T08:04:35.119Z,100258.03
2022-10-15T08:05:39.564Z,100246.03
2022-10-15T08:06:43.986Z,100254.53
2022-10-15T08:07:45.940Z,100253.16
2022-10-15T08:08:50.580Z,100255.47
2022-10-15T08:09:52.378Z,100252.22
2022-10-15T08:10:57.381Z,100247.97
2022-10-15T08:11:59.229Z,100250.41
2022-10-15T08:13:03.709Z,100258.94
2022-10-15T08:14:06.054Z,100250.28
2022-10-15T08:15:10.722Z,100258.09
2022-10-15T08:16:15.509Z,100261.25
2022-10-15T08:17:20.993Z,100266.09
2022-10-15T08:18:22.797Z,100261.41
2022-10-15T08:19:27.265Z,100270.38
2022-10-15T08:20:29.108Z,100271.56
2022-10-15T08:21:33.496Z,100276.13
2022-10-15T08:22:35.663Z,100275.28
2022-10-15T08:23:40.547Z,100265.63
2022-10-15T08:24:44.976Z,100265.94
2022-10-15T08:25:46.784Z,100277.69
2022-10-15T08:26:52.164Z,100275.16
2022-10-15T08:27:54.210Z,100274.44
2022-10-15T08:28:58.670Z,100278.41
2022-10-15T08:30:00.533Z,100276.88
2022-10-15T08:31:06.297Z,100272.72
2022-10-15T08:32:08.250Z,100277.56
2022-10-15T08:33:12.694Z,100280.53
2022-10-15T08:34:14.498Z,100273.72
2022-10-15T08:35:19.301Z,100279.69
2022-10-15T08:36:21.244Z,100278.69
2022-10-15T08:37:25.947Z,100278.13
2022-10-15T08:38:27.850Z,100277.53
2022-10-15T08:39:32.269Z,100280.94
2022-10-15T08:40:34.086Z,100271.72
2022-10-15T08:41:39.733Z,100285.78
2022-10-15T08:42:42.395Z,100273.28
2022-10-15T08:43:46.781Z,100278.94
2022-10-15T08:44:51.993Z,100268.16
2022-10-15T08:45:57.512Z,100280.66
2022-10-15T08:47:03.386Z,100280.66
2022-10-15T08:48:09.067Z,100269.84
2022-10-15T08:49:14.803Z,100271.56
2022-10-15T08:50:25.589Z,100277.53
2022-10-15T08:51:28.997Z,100268.97
2022-10-15T08:52:46.805Z,100266.69
2022-10-15T08:53:55.522Z,100276.59
2022-10-15T08:55:00.118Z,100263.53
2022-10-15T08:56:04.304Z,100268.59
2022-10-15T08:57:14.382Z,100264.63
2022-10-15T08:58:25.554Z,100273.28
2022-10-15T08:59:34.500Z,100269.44
2022-10-15T09:00:38.689Z,100277.38
2022-10-15T09:01:47.801Z,100265.72
2022-10-15T09:02:55.353Z,100284.47
2022-10-15T09:04:20.087Z,100278.22
2022-10-15T09:05:27.469Z,100279.94
2022-10-15T09:06:33.346Z,100279.94
2022-10-15T09:07:36.325Z,100276.94
2022-10-15T09:08:43.519Z,100269.41
2022-10-15T09:09:49.403Z,100277.88
2022-10-15T09:10:58.253Z,100275.03
2022-10-15T09:12:07.265Z,100278.44
2022-10-15T09:13:16.604Z,100278.16
2022-10-15T09:14:22.735Z,100286.50
2022-10-15T09:15:28.002Z,100288.03
2022-10-15T09:16:30.786Z,100274.25
2022-10-15T09:17:37.520Z,100286.63
2022-10-15T09:18:40.160Z,100282.75
2022-10-15T09:19:44.805Z,100274.88
2022-10-15T09:20:46.650Z,100284.16
2022-10-15T09:21:53.913Z,100280.53
2022-10-15T09:22:55.776Z,100284.38
2022-10-15T09:24:01.621Z,100284.81
2022-10-15T09:25:07.848Z,100312.00
2022-10-15T09:26:15.013Z,100297.19
2022-10-15T09:27:26.265Z,100300.31
2022-10-15T09:28:32.944Z,100305.78
2022-10-15T09:29:37.673Z,100294.63
2022-10-15T09:30:49.950Z,100310.25
2022-10-15T09:32:10.794Z,100305.50
2022-10-15T09:33:20.579Z,100303.81
2022-10-15T09:34:30.174Z,100314.69
2022-10-15T09:35:48.280Z,100307.59
2022-10-15T09:36:51.840Z,100316.38
2022-10-15T09:38:02.280Z,100294.69
2022-10-15T09:39:28.958Z,100314.03
2022-10-15T09:40:30.846Z,100310.25
2022-10-15T09:41:39.485Z,100308.91
2022-10-15T09:42:41.290Z,100307.53
2022-10-15T09:43:49.964Z,100307.53
2022-10-15T09:44:52.843Z,100303.13
2022-10-15T09:45:57.423Z,100307.38
2022-10-15T09:47:02.892Z,100307.84
2022-10-15T09:48:09.412Z,100311.94
2022-10-15T09:49:19.152Z,100303.75
2022-10-15T09:50:30.155Z,100308.13
2022-10-15T09:51:35.866Z,100292.88
2022-10-15T09:52:58.977Z,100288.75
2022-10-15T09:54:00.735Z,100311.16
2022-10-15T09:55:11.175Z,100310.47
2022-10-15T09:56:16.948Z,100292.19
2022-10-15T09:57:21.345Z,100297.97
2022-10-15T09:58:27.519Z,100299.19
2022-10-15T10:01:07.191Z,100302.63
2022-10-15T10:02:21.261Z,100300.78
2022-10-15T10:03:24.442Z,100300.63
2022-10-15T10:04:33.063Z,100290.31
2022-10-15T10:05:36.324Z,100289.00
2022-10-15T10:06:53.921Z,100291.06
2022-10-15T10:08:16.542Z,100293.78
2022-10-15T10:09:22.515Z,100283.59
2022-10-15T10:10:30.642Z,100277.81
2022-10-15T10:11:48.412Z,100276.13
2022-10-15T10:12:50.296Z,100283.91
2022-10-15T10:13:56.793Z,100281.53
2022-10-15T10:15:21.428Z,100278.50
2022-10-15T10:16:25.974Z,100280.19
2022-10-15T10:17:32.868Z,100281.88
2022-10-15T10:18:37.761Z,100282.56
2022-10-15T10:19:39.626Z,100286.28
2022-10-15T10:20:44.734Z,100278.16
2022-10-15T10:21:49.117Z,100281.16
2022-10-15T10:22:54.498Z,100277.75
2022-10-15T10:23:59.018Z,100283.84
2022-10-15T10:25:00.855Z,100277.38
2022-10-15T10:26:06.361Z,100275.00
2022-10-15T10:27:18.736Z,100274.66
2022-10-15T10:28:30.140Z,100264.13
2022-10-15T10:29:34.473Z,100279.56
2022-10-15T10:30:39.964Z,100275.16
2022-10-15T10:31:43.893Z,100264.78
2022-10-15T10:33:03.554Z,100279.72
2022-10-15T10:34:07.938Z,100267.47
2022-10-15T10:35:16.729Z,100285.09
2022-10-15T10:36:24.988Z,100281.88
2022-10-15T10:37:27.225Z,100273.91
2022-10-15T10:38:33.148Z,100275.06
2022-10-15T10:39:36.417Z,100266.25
2022-10-15T10:40:41.015Z,100266.56
2022-10-15T10:41:50.276Z,100279.63
2022-10-15T10:43:05.208Z,100274.91
2022-10-15T10:44:09.154Z,100267.41
2022-10-15T10:45:23.943Z,100270.97
2022-10-15T10:46:25.765Z,100270.31
2022-10-15T10:47:30.158Z,100263.84
2022-10-15T10:48:44.388Z,100274.03
2022-10-15T10:49:47.393Z,100269.47
2022-10-15T10:50:51.810Z,100267.78
2022-10-15T10:51:53.721Z,100264.06
2022-10-15T10:53:00.229Z,100274.91
2022-10-15T10:54:06.118Z,100269.78
2022-10-15T10:55:12.522Z,100270.13
2022-10-15T10:56:17.253Z,100276.25
2022-10-15T10:57:19.474Z,100279.66
2022-10-15T10:58:27.259Z,100274.22
2022-10-15T10:59:31.438Z,100270.81
2022-10-15T11:00:38.682Z,100272.53
2022-10-15T11:01:43.197Z,100269.28
2022-10-15T11:02:45.310Z,100274.19
2022-10-15T11:03:50.572Z,100264.69
2022-10-15T11:04:52.414Z,100272.28
2022-10-15T11:05:58.879Z,100266.81
2022-10-15T11:07:07.282Z,100271.69
2022-10-15T11:08:50.476Z,100279.47
2022-10-15T11:09:55.389Z,100275.03
2022-10-15T11:11:08.099Z,100265.69
2022-10-15T11:12:28.583Z,100266.00
2022-10-15T11:13:32.944Z,100272.06
2022-10-15T11:15:09.813Z,100266.97
2022-10-15T11:16:11.646Z,100266.09
2022-10-15T11:17:16.019Z,100268.97
2022-10-15T11:18:20.605Z,100277.25
2022-10-15T11:20:12.936Z,100281.50
2022-10-15T11:21:17.945Z,100280.34
2022-10-15T11:22:42.087Z,100271.75
2022-10-15T11:23:55.621Z,100262.28
2022-10-15T11:25:18.401Z,100275.50
2022-10-15T11:26:21.951Z,100273.34
2022-10-15T11:27:29.341Z,100269.28
2022-10-15T11:28:49.137Z,100272.34
2022-10-15T11:29:55.979Z,100272.38
2022-10-15T11:31:06.129Z,100267.88
2022-10-15T11:32:15.159Z,100265.53
2022-10-15T11:33:24.365Z,100276.25
2022-10-15T11:34:26.142Z,100277.31
2022-10-15T11:35:51.503Z,100274.94
2022-10-15T11:37:15.068Z,100267.16
2022-10-15T11:38:19.639Z,100277.00
2022-10-15T11:39:46.389Z,100267.19
2022-10-15T11:40:59.485Z,100269.59
2022-10-15T11:42:07.585Z,100271.16
2022-10-15T11:43:15.076Z,100260.16
2022-10-15T11:44:22.909Z,100262.88
2022-10-15T11:45:33.358Z,100263.56
2022-10-15T11:46:35.144Z,100267.97
2022-10-15T11:47:39.811Z,100266.59
2022-10-15T11:49:06.289Z,100254.06
2022-10-15T11:50:29.356Z,100256.41
2022-10-15T11:51:31.222Z,100257.09
2022-10-15T11:52:54.606Z,100256.03
2022-10-15T11:54:17.586Z,100263.50
2022-10-15T11:55:20.262Z,100258.06
2022-10-15T11:56:38.075Z,100261.47
2022-10-15T11:57:40.859Z,100265.53
2022-10-15T11:58:49.311Z,100263.31
2022-10-15T11:59:51.163Z,100258.03
2022-10-15T12:00:56.780Z,100251.59
2022-10-15T12:02:00.951Z,100265.34
2022-10-15T12:03:08.496Z,100257.75
2022-10-15T12:04:23.361Z,100261.13
2022-10-15T12:05:31.295Z,100259.44
2022-10-15T12:06:37.889Z,100257.38
2022-10-15T12:07:41.326Z,100259.06
2022-10-15T12:08:46.804Z,100250.91
2022-10-15T12:09:49.851Z,100251.25
2022-10-15T12:10:54.338Z,100263.13
2022-10-15T12:12:02.096Z,100257.75
2022-10-15T12:13:11.829Z,100245.69
2022-10-15T12:14:18.216Z,100250.06
2022-10-15T12:15:24.006Z,100254.50
2022-10-15T12:16:33.360Z,100252.66
2022-10-15T12:17:43.023Z,100252.31
2022-10-15T12:18:47.424Z,100255.22
2022-10-15T12:19:54.524Z,100246.22
2022-10-15T12:20:58.623Z,100257.09
2022-10-15T12:22:11.330Z,100261.16
2022-10-15T12:23:29.255Z,100250.63
2022-10-15T12:24:44.786Z,100255.03
2022-10-15T12:25:49.450Z,100253.66
2022-10-15T12:26:51.255Z,100251.97
2022-10-15T12:28:02.657Z,100256.56
2022-10-15T12:29:05.785Z,100255.69
2022-10-15T12:30:11.804Z,100256.69
2022-10-15T12:31:20.328Z,100258.34
2022-10-15T12:32:23.240Z,100257.28
2022-10-15T12:33:29.139Z,100258.97
2022-10-15T12:34:33.586Z,100253.66
2022-10-15T12:35:41.856Z,100247.03
2022-10-15T12:36:43.669Z,100250.06
2022-10-15T12:37:49.611Z,100244.25
2022-10-15T12:39:11.594Z,100251.56
2022-10-15T12:40:23.471Z,100248.66
2022-10-15T12:41:38.239Z,100248.00
2022-10-15T12:42:40.127Z,100246.31
2022-10-15T12:43:48.969Z,100249.22